sensor_id;sensor_type;location;lat;lon;timestamp;P1;durP1;ratioP1;P2;durP2;ratioP2
75651;SDS011;64248;43.602;39.724;2022-12-18T00:01:17;1.40;;;0.63;;
75651;SDS011;64248;43.602;39.724;2022-12-18T00:03:45;1.58;;;0.30;;
75651;SDS011;64248;43.602;39.724;2022-12-18T00:06:13;2.33;;;0.30;;
75651;SDS011;64248;43.602;39.724;2022-12-18T00:08:40;1.90;;;0.40;;
75651;SDS011;64248;43.602;39.724;2022-12-18T00:11:07;3.45;;;0.75;;
75651;SDS011;64248;43.602;39.724;2022-12-18T00:13:34;2.13;;;0.40;;
75651;SDS011;64248;43.602;39.724;2022-12-18T00:16:01;2.60;;;0.40;;
75651;SDS011;64248;43.602;39.724;2022-12-18T00:18:28;1.52;;;0.55;;
75651;SDS011;64248;43.602;39.724;2022-12-18T00:20:57;2.97;;;0.57;;
75651;SDS011;64248;43.602;39.724;2022-12-18T00:23:28;1.30;;;0.40;;
75651;SDS011;64248;43.602;39.724;2022-12-18T00:25:58;1.70;;;1.20;;
75651;SDS011;64248;43.602;39.724;2022-12-18T00:28:25;3.03;;;0.63;;
75651;SDS011;64248;43.602;39.724;2022-12-18T00:30:51;1.80;;;0.32;;
75651;SDS011;64248;43.602;39.724;2022-12-18T00:33:24;1.70;;;0.40;;
75651;SDS011;64248;43.602;39.724;2022-12-18T00:35:50;1.17;;;0.35;;
75651;SDS011;64248;43.602;39.724;2022-12-18T00:38:16;2.50;;;0.60;;
75651;SDS011;64248;43.602;39.724;2022-12-18T00:40:42;0.60;;;0.22;;
75651;SDS011;64248;43.602;39.724;2022-12-18T00:43:11;1.42;;;0.43;;
75651;SDS011;64248;43.602;39.724;2022-12-18T00:45:37;1.35;;;0.50;;
75651;SDS011;64248;43.602;39.724;2022-12-18T00:48:03;2.65;;;0.47;;
75651;SDS011;64248;43.602;39.724;2022-12-18T00:50:30;1.48;;;0.32;;
75651;SDS011;64248;43.602;39.724;2022-12-18T00:52:55;1.30;;;0.30;;
75651;SDS011;64248;43.602;39.724;2022-12-18T00:55:21;1.75;;;0.20;;
75651;SDS011;64248;43.602;39.724;2022-12-18T00:57:47;1.60;;;0.43;;
75651;SDS011;64248;43.602;39.724;2022-12-18T01:00:14;0.95;;;0.30;;
75651;SDS011;64248;43.602;39.724;2022-12-18T01:02:40;2.90;;;0.70;;
75651;SDS011;64248;43.602;39.724;2022-12-18T01:05:08;3.20;;;0.35;;
75651;SDS011;64248;43.602;39.724;2022-12-18T01:07:35;2.10;;;0.63;;
75651;SDS011;64248;43.602;39.724;2022-12-18T01:10:02;1.70;;;0.30;;
75651;SDS011;64248;43.602;39.724;2022-12-18T01:12:29;1.60;;;0.32;;
75651;SDS011;64248;43.602;39.724;2022-12-18T01:14:55;3.40;;;0.52;;
75651;SDS011;64248;43.602;39.724;2022-12-18T01:17:21;1.85;;;0.40;;
75651;SDS011;64248;43.602;39.724;2022-12-18T01:19:47;1.48;;;0.50;;
75651;SDS011;64248;43.602;39.724;2022-12-18T01:22:13;2.08;;;0.50;;
75651;SDS011;64248;43.602;39.724;2022-12-18T01:24:39;1.15;;;0.57;;
75651;SDS011;64248;43.602;39.724;2022-12-18T01:27:05;1.25;;;0.32;;
75651;SDS011;64248;43.602;39.724;2022-12-18T01:29:32;1.83;;;0.50;;
75651;SDS011;64248;43.602;39.724;2022-12-18T01:31:58;1.67;;;0.40;;
75651;SDS011;64248;43.602;39.724;2022-12-18T01:34:24;0.70;;;0.22;;
75651;SDS011;64248;43.602;39.724;2022-12-18T01:36:50;1.05;;;0.45;;
75651;SDS011;64248;43.602;39.724;2022-12-18T01:39:19;4.32;;;0.32;;
75651;SDS011;64248;43.602;39.724;2022-12-18T01:41:45;0.98;;;0.40;;
75651;SDS011;64248;43.602;39.724;2022-12-18T01:49:57;2.03;;;0.20;;
75651;SDS011;64248;43.602;39.724;2022-12-18T01:52:28;3.38;;;0.50;;
75651;SDS011;64248;43.602;39.724;2022-12-18T01:54:57;1.73;;;0.40;;
75651;SDS011;64248;43.602;39.724;2022-12-18T01:57:25;1.77;;;0.32;;
75651;SDS011;64248;43.602;39.724;2022-12-18T01:59:53;1.40;;;1.02;;
75651;SDS011;64248;43.602;39.724;2022-12-18T02:02:22;2.20;;;0.30;;
75651;SDS011;64248;43.602;39.724;2022-12-18T02:04:48;0.88;;;0.22;;
75651;SDS011;64248;43.602;39.724;2022-12-18T02:10:19;2.67;;;0.38;;
75651;SDS011;64248;43.602;39.724;2022-12-18T02:18:18;2.88;;;0.40;;
75651;SDS011;64248;43.602;39.724;2022-12-18T02:23:45;3.70;;;0.52;;
75651;SDS011;64248;43.602;39.724;2022-12-18T02:26:20;1.88;;;0.40;;
75651;SDS011;64248;43.602;39.724;2022-12-18T02:29:08;1.25;;;0.40;;
75651;SDS011;64248;43.602;39.724;2022-12-18T02:31:43;0.93;;;0.32;;
75651;SDS011;64248;43.602;39.724;2022-12-18T02:34:14;2.33;;;0.40;;
75651;SDS011;64248;43.602;39.724;2022-12-18T02:36:42;1.70;;;0.35;;
75651;SDS011;64248;43.602;39.724;2022-12-18T02:39:10;1.67;;;0.20;;
75651;SDS011;64248;43.602;39.724;2022-12-18T02:41:44;0.82;;;0.32;;
75651;SDS011;64248;43.602;39.724;2022-12-18T02:44:11;1.73;;;0.40;;
75651;SDS011;64248;43.602;39.724;2022-12-18T02:46:46;2.80;;;0.60;;
75651;SDS011;64248;43.602;39.724;2022-12-18T02:49:36;1.48;;;0.30;;
75651;SDS011;64248;43.602;39.724;2022-12-18T02:52:39;2.17;;;0.22;;
75651;SDS011;64248;43.602;39.724;2022-12-18T02:55:23;1.58;;;0.22;;
75651;SDS011;64248;43.602;39.724;2022-12-18T02:58:27;0.88;;;0.20;;
75651;SDS011;64248;43.602;39.724;2022-12-18T03:06:43;1.30;;;0.32;;
75651;SDS011;64248;43.602;39.724;2022-12-18T03:09:36;0.95;;;0.25;;
75651;SDS011;64248;43.602;39.724;2022-12-18T03:12:04;1.13;;;0.30;;
75651;SDS011;64248;43.602;39.724;2022-12-18T03:17:28;1.92;;;0.57;;
75651;SDS011;64248;43.602;39.724;2022-12-18T03:19:58;0.55;;;0.25;;
75651;SDS011;64248;43.602;39.724;2022-12-18T03:22:47;2.35;;;0.40;;
75651;SDS011;64248;43.602;39.724;2022-12-18T03:25:19;1.90;;;0.38;;
75651;SDS011;64248;43.602;39.724;2022-12-18T03:27:47;1.77;;;0.30;;
75651;SDS011;64248;43.602;39.724;2022-12-18T03:35:17;2.15;;;0.38;;
75651;SDS011;64248;43.602;39.724;2022-12-18T03:37:48;2.58;;;0.63;;
75651;SDS011;64248;43.602;39.724;2022-12-18T03:40:14;2.10;;;0.73;;
75651;SDS011;64248;43.602;39.724;2022-12-18T03:43:02;1.00;;;0.25;;
75651;SDS011;64248;43.602;39.724;2022-12-18T03:45:36;3.30;;;1.00;;
75651;SDS011;64248;43.602;39.724;2022-12-18T03:50:56;1.90;;;0.70;;
75651;SDS011;64248;43.602;39.724;2022-12-18T03:54:08;2.38;;;1.02;;
75651;SDS011;64248;43.602;39.724;2022-12-18T03:56:16;2.75;;;0.70;;
75651;SDS011;64248;43.602;39.724;2022-12-18T03:58:44;1.65;;;0.40;;
75651;SDS011;64248;43.602;39.724;2022-12-18T04:01:17;1.92;;;0.68;;
75651;SDS011;64248;43.602;39.724;2022-12-18T04:03:46;3.88;;;0.43;;
75651;SDS011;64248;43.602;39.724;2022-12-18T04:06:16;2.00;;;0.45;;
75651;SDS011;64248;43.602;39.724;2022-12-18T04:08:43;3.15;;;0.63;;
75651;SDS011;64248;43.602;39.724;2022-12-18T04:11:14;1.52;;;0.50;;
75651;SDS011;64248;43.602;39.724;2022-12-18T04:13:42;1.63;;;0.60;;
75651;SDS011;64248;43.602;39.724;2022-12-18T04:16:16;2.00;;;0.40;;
75651;SDS011;64248;43.602;39.724;2022-12-18T04:18:43;1.58;;;0.47;;
75651;SDS011;64248;43.602;39.724;2022-12-18T04:21:09;1.30;;;0.30;;
75651;SDS011;64248;43.602;39.724;2022-12-18T04:23:36;1.48;;;0.30;;
75651;SDS011;64248;43.602;39.724;2022-12-18T04:26:02;2.40;;;0.60;;
75651;SDS011;64248;43.602;39.724;2022-12-18T04:28:41;1.90;;;0.25;;
75651;SDS011;64248;43.602;39.724;2022-12-18T04:31:08;1.20;;;0.43;;
75651;SDS011;64248;43.602;39.724;2022-12-18T04:33:34;0.88;;;0.30;;
75651;SDS011;64248;43.602;39.724;2022-12-18T04:36:01;1.88;;;0.50;;
75651;SDS011;64248;43.602;39.724;2022-12-18T04:38:26;4.40;;;0.30;;
75651;SDS011;64248;43.602;39.724;2022-12-18T04:41:01;1.85;;;0.40;;
75651;SDS011;64248;43.602;39.724;2022-12-18T04:43:26;3.20;;;0.40;;
75651;SDS011;64248;43.602;39.724;2022-12-18T04:45:52;1.45;;;0.47;;
75651;SDS011;64248;43.602;39.724;2022-12-18T04:48:18;0.98;;;0.30;;
75651;SDS011;64248;43.602;39.724;2022-12-18T04:50:46;2.38;;;0.52;;
75651;SDS011;64248;43.602;39.724;2022-12-18T04:53:12;1.42;;;0.45;;
75651;SDS011;64248;43.602;39.724;2022-12-18T04:55:38;1.15;;;0.40;;
75651;SDS011;64248;43.602;39.724;2022-12-18T04:58:04;1.65;;;0.40;;
75651;SDS011;64248;43.602;39.724;2022-12-18T05:00:30;1.42;;;0.50;;
75651;SDS011;64248;43.602;39.724;2022-12-18T05:02:56;3.95;;;0.50;;
75651;SDS011;64248;43.602;39.724;2022-12-18T05:05:22;1.95;;;0.32;;
75651;SDS011;64248;43.602;39.724;2022-12-18T05:07:48;1.48;;;0.52;;
75651;SDS011;64248;43.602;39.724;2022-12-18T05:10:14;2.45;;;0.32;;
75651;SDS011;64248;43.602;39.724;2022-12-18T05:12:40;1.83;;;0.52;;
75651;SDS011;64248;43.602;39.724;2022-12-18T05:15:23;3.42;;;0.50;;
75651;SDS011;64248;43.602;39.724;2022-12-18T05:17:51;2.20;;;0.50;;
75651;SDS011;64248;43.602;39.724;2022-12-18T05:20:17;3.35;;;0.75;;
75651;SDS011;64248;43.602;39.724;2022-12-18T05:22:43;2.92;;;0.60;;
75651;SDS011;64248;43.602;39.724;2022-12-18T05:25:09;2.30;;;0.43;;
75651;SDS011;64248;43.602;39.724;2022-12-18T05:27:35;4.25;;;0.63;;
75651;SDS011;64248;43.602;39.724;2022-12-18T05:30:01;4.32;;;0.50;;
75651;SDS011;64248;43.602;39.724;2022-12-18T05:32:27;3.33;;;0.60;;
75651;SDS011;64248;43.602;39.724;2022-12-18T05:34:53;2.15;;;0.60;;
75651;SDS011;64248;43.602;39.724;2022-12-18T05:37:19;2.78;;;0.70;;
75651;SDS011;64248;43.602;39.724;2022-12-18T05:39:46;2.55;;;0.70;;
75651;SDS011;64248;43.602;39.724;2022-12-18T05:42:11;2.08;;;0.50;;
75651;SDS011;64248;43.602;39.724;2022-12-18T05:44:37;1.45;;;0.45;;
75651;SDS011;64248;43.602;39.724;2022-12-18T05:47:03;1.77;;;0.60;;
75651;SDS011;64248;43.602;39.724;2022-12-18T05:49:29;2.53;;;0.70;;
75651;SDS011;64248;43.602;39.724;2022-12-18T05:51:55;2.75;;;0.63;;
75651;SDS011;64248;43.602;39.724;2022-12-18T05:54:21;2.58;;;0.60;;
75651;SDS011;64248;43.602;39.724;2022-12-18T05:56:47;5.43;;;1.00;;
75651;SDS011;64248;43.602;39.724;2022-12-18T05:59:13;3.72;;;1.02;;
75651;SDS011;64248;43.602;39.724;2022-12-18T06:01:38;5.82;;;1.38;;
75651;SDS011;64248;43.602;39.724;2022-12-18T06:04:04;2.58;;;1.40;;
75651;SDS011;64248;43.602;39.724;2022-12-18T06:06:30;2.40;;;1.48;;
75651;SDS011;64248;43.602;39.724;2022-12-18T06:08:56;4.20;;;1.55;;
75651;SDS011;64248;43.602;39.724;2022-12-18T06:11:23;2.78;;;1.13;;
75651;SDS011;64248;43.602;39.724;2022-12-18T06:13:55;2.17;;;1.00;;
75651;SDS011;64248;43.602;39.724;2022-12-18T06:16:22;4.13;;;0.90;;
75651;SDS011;64248;43.602;39.724;2022-12-18T06:18:47;3.42;;;1.25;;
75651;SDS011;64248;43.602;39.724;2022-12-18T06:21:13;2.28;;;1.02;;
75651;SDS011;64248;43.602;39.724;2022-12-18T06:23:39;2.47;;;0.98;;
75651;SDS011;64248;43.602;39.724;2022-12-18T06:26:06;2.15;;;0.80;;
75651;SDS011;64248;43.602;39.724;2022-12-18T06:28:36;1.80;;;0.93;;
75651;SDS011;64248;43.602;39.724;2022-12-18T06:31:03;5.35;;;1.50;;
75651;SDS011;64248;43.602;39.724;2022-12-18T06:33:30;5.72;;;1.35;;
75651;SDS011;64248;43.602;39.724;2022-12-18T06:36:14;3.17;;;1.38;;
75651;SDS011;64248;43.602;39.724;2022-12-18T06:38:40;6.20;;;1.27;;
75651;SDS011;64248;43.602;39.724;2022-12-18T06:41:11;4.68;;;1.33;;
75651;SDS011;64248;43.602;39.724;2022-12-18T06:43:39;6.60;;;1.45;;
75651;SDS011;64248;43.602;39.724;2022-12-18T06:46:05;4.75;;;1.30;;
75651;SDS011;64248;43.602;39.724;2022-12-18T06:48:32;4.85;;;1.30;;
75651;SDS011;64248;43.602;39.724;2022-12-18T06:50:59;5.90;;;1.73;;
75651;SDS011;64248;43.602;39.724;2022-12-18T06:53:26;6.32;;;1.17;;
75651;SDS011;64248;43.602;39.724;2022-12-18T06:55:52;11.13;;;3.60;;
75651;SDS011;64248;43.602;39.724;2022-12-18T06:58:24;12.32;;;3.10;;
75651;SDS011;64248;43.602;39.724;2022-12-18T07:00:50;6.15;;;1.65;;
75651;SDS011;64248;43.602;39.724;2022-12-18T07:03:17;9.02;;;1.40;;
75651;SDS011;64248;43.602;39.724;2022-12-18T07:05:42;4.60;;;1.55;;
75651;SDS011;64248;43.602;39.724;2022-12-18T07:08:08;4.20;;;1.38;;
75651;SDS011;64248;43.602;39.724;2022-12-18T07:10:40;3.88;;;1.35;;
75651;SDS011;64248;43.602;39.724;2022-12-18T07:13:07;6.38;;;1.02;;
75651;SDS011;64248;43.602;39.724;2022-12-18T07:15:33;3.38;;;1.05;;
75651;SDS011;64248;43.602;39.724;2022-12-18T07:17:59;3.70;;;1.33;;
75651;SDS011;64248;43.602;39.724;2022-12-18T07:20:25;6.18;;;2.17;;
75651;SDS011;64248;43.602;39.724;2022-12-18T07:22:51;5.65;;;1.45;;
75651;SDS011;64248;43.602;39.724;2022-12-18T07:25:16;5.13;;;1.60;;
75651;SDS011;64248;43.602;39.724;2022-12-18T07:27:42;2.80;;;1.48;;
75651;SDS011;64248;43.602;39.724;2022-12-18T07:30:08;5.25;;;1.42;;
75651;SDS011;64248;43.602;39.724;2022-12-18T07:32:35;3.58;;;1.27;;
75651;SDS011;64248;43.602;39.724;2022-12-18T07:35:01;4.45;;;0.95;;
75651;SDS011;64248;43.602;39.724;2022-12-18T07:37:26;7.55;;;1.80;;
75651;SDS011;64248;43.602;39.724;2022-12-18T07:39:53;6.03;;;1.95;;
75651;SDS011;64248;43.602;39.724;2022-12-18T07:42:19;4.50;;;1.40;;
75651;SDS011;64248;43.602;39.724;2022-12-18T07:45:00;4.43;;;1.80;;
75651;SDS011;64248;43.602;39.724;2022-12-18T07:47:27;7.65;;;1.63;;
75651;SDS011;64248;43.602;39.724;2022-12-18T07:49:57;3.22;;;1.00;;
75651;SDS011;64248;43.602;39.724;2022-12-18T07:52:23;4.95;;;1.63;;
75651;SDS011;64248;43.602;39.724;2022-12-18T07:54:49;5.82;;;1.13;;
75651;SDS011;64248;43.602;39.724;2022-12-18T07:57:15;3.60;;;1.55;;
75651;SDS011;64248;43.602;39.724;2022-12-18T07:59:42;4.35;;;1.13;;
75651;SDS011;64248;43.602;39.724;2022-12-18T08:02:08;4.70;;;1.42;;
75651;SDS011;64248;43.602;39.724;2022-12-18T08:04:34;6.45;;;1.77;;
75651;SDS011;64248;43.602;39.724;2022-12-18T08:07:00;4.28;;;1.52;;
75651;SDS011;64248;43.602;39.724;2022-12-18T08:09:26;6.07;;;1.33;;
75651;SDS011;64248;43.602;39.724;2022-12-18T08:11:51;4.45;;;1.38;;
75651;SDS011;64248;43.602;39.724;2022-12-18T08:14:17;2.85;;;1.23;;
75651;SDS011;64248;43.602;39.724;2022-12-18T08:16:43;4.43;;;1.42;;
75651;SDS011;64248;43.602;39.724;2022-12-18T08:19:09;6.72;;;1.85;;
75651;SDS011;64248;43.602;39.724;2022-12-18T08:21:35;6.35;;;1.85;;
75651;SDS011;64248;43.602;39.724;2022-12-18T08:24:02;4.50;;;1.23;;
75651;SDS011;64248;43.602;39.724;2022-12-18T08:26:29;5.25;;;1.50;;
75651;SDS011;64248;43.602;39.724;2022-12-18T08:28:56;2.53;;;1.05;;
75651;SDS011;64248;43.602;39.724;2022-12-18T08:31:23;3.78;;;0.93;;
75651;SDS011;64248;43.602;39.724;2022-12-18T08:33:50;4.30;;;1.13;;
75651;SDS011;64248;43.602;39.724;2022-12-18T08:36:17;3.38;;;1.65;;
75651;SDS011;64248;43.602;39.724;2022-12-18T08:38:45;5.85;;;0.82;;
75651;SDS011;64248;43.602;39.724;2022-12-18T08:41:12;5.85;;;2.22;;
75651;SDS011;64248;43.602;39.724;2022-12-18T08:43:39;5.78;;;1.55;;
75651;SDS011;64248;43.602;39.724;2022-12-18T08:46:24;3.13;;;1.25;;
75651;SDS011;64248;43.602;39.724;2022-12-18T08:48:52;5.85;;;1.67;;
75651;SDS011;64248;43.602;39.724;2022-12-18T08:51:19;3.60;;;1.65;;
75651;SDS011;64248;43.602;39.724;2022-12-18T08:53:45;3.13;;;1.90;;
75651;SDS011;64248;43.602;39.724;2022-12-18T08:56:12;3.47;;;1.65;;
75651;SDS011;64248;43.602;39.724;2022-12-18T08:58:38;5.72;;;1.95;;
75651;SDS011;64248;43.602;39.724;2022-12-18T09:01:05;3.17;;;1.27;;
75651;SDS011;64248;43.602;39.724;2022-12-18T09:03:34;5.80;;;1.52;;
75651;SDS011;64248;43.602;39.724;2022-12-18T09:06:00;3.38;;;1.45;;
75651;SDS011;64248;43.602;39.724;2022-12-18T09:08:26;3.85;;;1.20;;
75651;SDS011;64248;43.602;39.724;2022-12-18T09:10:53;2.17;;;0.90;;
75651;SDS011;64248;43.602;39.724;2022-12-18T09:13:19;3.22;;;0.85;;
75651;SDS011;64248;43.602;39.724;2022-12-18T09:15:46;3.67;;;0.70;;
75651;SDS011;64248;43.602;39.724;2022-12-18T09:18:14;3.97;;;0.70;;
75651;SDS011;64248;43.602;39.724;2022-12-18T09:20:42;1.85;;;0.68;;
75651;SDS011;64248;43.602;39.724;2022-12-18T09:23:08;2.75;;;0.55;;
75651;SDS011;64248;43.602;39.724;2022-12-18T09:25:35;2.20;;;0.93;;
75651;SDS011;64248;43.602;39.724;2022-12-18T09:28:02;2.72;;;0.90;;
75651;SDS011;64248;43.602;39.724;2022-12-18T09:30:30;1.95;;;0.60;;
75651;SDS011;64248;43.602;39.724;2022-12-18T09:32:58;3.58;;;0.82;;
75651;SDS011;64248;43.602;39.724;2022-12-18T09:35:24;3.05;;;1.00;;
75651;SDS011;64248;43.602;39.724;2022-12-18T09:37:50;2.38;;;0.75;;
75651;SDS011;64248;43.602;39.724;2022-12-18T09:40:18;2.67;;;0.65;;
75651;SDS011;64248;43.602;39.724;2022-12-18T09:42:57;5.18;;;0.90;;
75651;SDS011;64248;43.602;39.724;2022-12-18T09:45:30;4.60;;;1.00;;
75651;SDS011;64248;43.602;39.724;2022-12-18T09:48:15;6.28;;;1.02;;
75651;SDS011;64248;43.602;39.724;2022-12-18T09:50:57;2.30;;;1.08;;
75651;SDS011;64248;43.602;39.724;2022-12-18T09:53:28;1.63;;;0.68;;
75651;SDS011;64248;43.602;39.724;2022-12-18T09:55:58;2.95;;;0.98;;
75651;SDS011;64248;43.602;39.724;2022-12-18T10:00:58;4.90;;;1.02;;
75651;SDS011;64248;43.602;39.724;2022-12-18T10:03:24;3.88;;;0.90;;
75651;SDS011;64248;43.602;39.724;2022-12-18T10:08:46;3.10;;;0.70;;
75651;SDS011;64248;43.602;39.724;2022-12-18T10:14:33;3.80;;;1.02;;
75651;SDS011;64248;43.602;39.724;2022-12-18T10:17:11;4.07;;;1.55;;
75651;SDS011;64248;43.602;39.724;2022-12-18T10:19:49;4.05;;;1.77;;
75651;SDS011;64248;43.602;39.724;2022-12-18T10:27:44;5.78;;;3.00;;
75651;SDS011;64248;43.602;39.724;2022-12-18T10:30:14;12.55;;;6.95;;
75651;SDS011;64248;43.602;39.724;2022-12-18T10:32:46;4.13;;;1.50;;
75651;SDS011;64248;43.602;39.724;2022-12-18T10:35:17;1.98;;;0.98;;
75651;SDS011;64248;43.602;39.724;2022-12-18T10:40:49;1.88;;;0.60;;
75651;SDS011;64248;43.602;39.724;2022-12-18T10:51:21;3.28;;;1.88;;
75651;SDS011;64248;43.602;39.724;2022-12-18T10:56:23;3.88;;;1.20;;
75651;SDS011;64248;43.602;39.724;2022-12-18T10:58:58;2.70;;;1.00;;
75651;SDS011;64248;43.602;39.724;2022-12-18T11:01:26;3.53;;;1.60;;
75651;SDS011;64248;43.602;39.724;2022-12-18T11:06:20;2.25;;;0.75;;
75651;SDS011;64248;43.602;39.724;2022-12-18T11:09:05;2.72;;;1.10;;
75651;SDS011;64248;43.602;39.724;2022-12-18T11:11:55;2.40;;;0.88;;
75651;SDS011;64248;43.602;39.724;2022-12-18T11:14:34;2.40;;;0.82;;
75651;SDS011;64248;43.602;39.724;2022-12-18T11:19:54;2.40;;;0.93;;
75651;SDS011;64248;43.602;39.724;2022-12-18T11:22:34;3.13;;;1.15;;
75651;SDS011;64248;43.602;39.724;2022-12-18T11:25:05;2.45;;;1.15;;
75651;SDS011;64248;43.602;39.724;2022-12-18T11:27:54;3.60;;;0.93;;
75651;SDS011;64248;43.602;39.724;2022-12-18T11:30:26;2.45;;;0.80;;
75651;SDS011;64248;43.602;39.724;2022-12-18T11:38:18;2.67;;;0.70;;
75651;SDS011;64248;43.602;39.724;2022-12-18T11:44:08;3.10;;;0.95;;
75651;SDS011;64248;43.602;39.724;2022-12-18T11:46:59;3.22;;;1.05;;
75651;SDS011;64248;43.602;39.724;2022-12-18T11:49:32;3.90;;;0.93;;
75651;SDS011;64248;43.602;39.724;2022-12-18T11:54:34;2.20;;;0.98;;
75651;SDS011;64248;43.602;39.724;2022-12-18T11:57:07;3.03;;;1.23;;
75651;SDS011;64248;43.602;39.724;2022-12-18T11:59:46;2.88;;;1.02;;
75651;SDS011;64248;43.602;39.724;2022-12-18T12:05:44;3.95;;;1.13;;
75651;SDS011;64248;43.602;39.724;2022-12-18T12:13:50;5.40;;;1.25;;
75651;SDS011;64248;43.602;39.724;2022-12-18T12:25:02;2.95;;;1.45;;
75651;SDS011;64248;43.602;39.724;2022-12-18T12:27:53;3.95;;;1.40;;
75651;SDS011;64248;43.602;39.724;2022-12-18T12:36:14;3.63;;;1.95;;
75651;SDS011;64248;43.602;39.724;2022-12-18T12:38:49;2.65;;;1.02;;
75651;SDS011;64248;43.602;39.724;2022-12-18T12:41:21;3.67;;;1.20;;
75651;SDS011;64248;43.602;39.724;2022-12-18T12:44:09;6.28;;;2.38;;
75651;SDS011;64248;43.602;39.724;2022-12-18T12:46:40;4.88;;;1.55;;
75651;SDS011;64248;43.602;39.724;2022-12-18T12:49:17;4.60;;;1.40;;
75651;SDS011;64248;43.602;39.724;2022-12-18T12:51:59;4.32;;;1.33;;
75651;SDS011;64248;43.602;39.724;2022-12-18T12:54:31;4.40;;;1.45;;
75651;SDS011;64248;43.602;39.724;2022-12-18T12:59:44;3.95;;;1.85;;
75651;SDS011;64248;43.602;39.724;2022-12-18T13:04:57;4.40;;;1.63;;
75651;SDS011;64248;43.602;39.724;2022-12-18T13:07:41;5.88;;;2.20;;
75651;SDS011;64248;43.602;39.724;2022-12-18T13:12:53;6.72;;;1.90;;
75651;SDS011;64248;43.602;39.724;2022-12-18T13:18:05;7.38;;;2.10;;
75651;SDS011;64248;43.602;39.724;2022-12-18T13:20:44;6.32;;;2.17;;
75651;SDS011;64248;43.602;39.724;2022-12-18T13:25:58;3.97;;;2.03;;
75651;SDS011;64248;43.602;39.724;2022-12-18T13:34:14;6.47;;;2.80;;
75651;SDS011;64248;43.602;39.724;2022-12-18T13:36:43;9.10;;;3.50;;
75651;SDS011;64248;43.602;39.724;2022-12-18T13:41:35;7.30;;;2.67;;
75651;SDS011;64248;43.602;39.724;2022-12-18T13:44:13;8.27;;;2.42;;
75651;SDS011;64248;43.602;39.724;2022-12-18T13:46:59;6.85;;;2.70;;
75651;SDS011;64248;43.602;39.724;2022-12-18T13:49:36;4.85;;;2.50;;
75651;SDS011;64248;43.602;39.724;2022-12-18T13:52:24;6.30;;;2.55;;
75651;SDS011;64248;43.602;39.724;2022-12-18T13:54:52;8.40;;;3.00;;
75651;SDS011;64248;43.602;39.724;2022-12-18T13:57:27;4.20;;;2.47;;
75651;SDS011;64248;43.602;39.724;2022-12-18T14:02:47;8.18;;;2.67;;
75651;SDS011;64248;43.602;39.724;2022-12-18T14:10:20;90.32;;;35.33;;
75651;SDS011;64248;43.602;39.724;2022-12-18T14:12:48;188.70;;;78.78;;
75651;SDS011;64248;43.602;39.724;2022-12-18T14:15:39;25.30;;;11.88;;
75651;SDS011;64248;43.602;39.724;2022-12-18T14:18:23;9.38;;;4.90;;
75651;SDS011;64248;43.602;39.724;2022-12-18T14:20:59;9.27;;;4.85;;
75651;SDS011;64248;43.602;39.724;2022-12-18T14:25:55;12.60;;;5.88;;
75651;SDS011;64248;43.602;39.724;2022-12-18T14:28:21;12.50;;;7.03;;
75651;SDS011;64248;43.602;39.724;2022-12-18T14:30:47;19.88;;;10.52;;
75651;SDS011;64248;43.602;39.724;2022-12-18T14:33:18;20.48;;;11.85;;
75651;SDS011;64248;43.602;39.724;2022-12-18T14:35:56;19.90;;;10.25;;
75651;SDS011;64248;43.602;39.724;2022-12-18T14:40:57;26.30;;;12.15;;
75651;SDS011;64248;43.602;39.724;2022-12-18T14:43:25;23.40;;;10.68;;
75651;SDS011;64248;43.602;39.724;2022-12-18T14:45:52;22.25;;;11.07;;
75651;SDS011;64248;43.602;39.724;2022-12-18T14:53:42;21.90;;;9.30;;
75651;SDS011;64248;43.602;39.724;2022-12-18T14:56:16;18.35;;;10.85;;
75651;SDS011;64248;43.602;39.724;2022-12-18T14:58:51;22.25;;;10.25;;
75651;SDS011;64248;43.602;39.724;2022-12-18T15:01:21;23.17;;;10.70;;
75651;SDS011;64248;43.602;39.724;2022-12-18T15:04:03;18.27;;;10.05;;
75651;SDS011;64248;43.602;39.724;2022-12-18T15:06:35;21.65;;;11.05;;
75651;SDS011;64248;43.602;39.724;2022-12-18T15:09:03;19.77;;;10.75;;
75651;SDS011;64248;43.602;39.724;2022-12-18T15:11:47;23.17;;;10.50;;
75651;SDS011;64248;43.602;39.724;2022-12-18T15:14:23;21.88;;;11.82;;
75651;SDS011;64248;43.602;39.724;2022-12-18T15:17:02;22.60;;;12.07;;
75651;SDS011;64248;43.602;39.724;2022-12-18T15:19:41;23.45;;;11.70;;
75651;SDS011;64248;43.602;39.724;2022-12-18T15:22:15;23.95;;;11.63;;
75651;SDS011;64248;43.602;39.724;2022-12-18T15:24:49;26.83;;;12.00;;
75651;SDS011;64248;43.602;39.724;2022-12-18T15:30:00;24.20;;;11.77;;
75651;SDS011;64248;43.602;39.724;2022-12-18T15:32:33;25.58;;;10.65;;
75651;SDS011;64248;43.602;39.724;2022-12-18T15:35:19;28.05;;;12.07;;
75651;SDS011;64248;43.602;39.724;2022-12-18T15:37:47;22.40;;;10.07;;
75651;SDS011;64248;43.602;39.724;2022-12-18T15:40:15;22.60;;;10.13;;
75651;SDS011;64248;43.602;39.724;2022-12-18T15:42:43;23.27;;;10.95;;
75651;SDS011;64248;43.602;39.724;2022-12-18T15:45:29;20.80;;;10.38;;
75651;SDS011;64248;43.602;39.724;2022-12-18T15:47:55;22.67;;;9.52;;
75651;SDS011;64248;43.602;39.724;2022-12-18T15:50:21;18.95;;;9.07;;
75651;SDS011;64248;43.602;39.724;2022-12-18T15:52:48;20.20;;;8.85;;
75651;SDS011;64248;43.602;39.724;2022-12-18T15:55:17;20.17;;;10.63;;
75651;SDS011;64248;43.602;39.724;2022-12-18T15:58:07;21.75;;;10.25;;
75651;SDS011;64248;43.602;39.724;2022-12-18T16:00:34;20.77;;;8.93;;
75651;SDS011;64248;43.602;39.724;2022-12-18T16:03:02;17.83;;;8.20;;
75651;SDS011;64248;43.602;39.724;2022-12-18T16:05:38;29.38;;;10.88;;
75651;SDS011;64248;43.602;39.724;2022-12-18T16:08:12;16.13;;;8.52;;
75651;SDS011;64248;43.602;39.724;2022-12-18T16:10:39;83.65;;;36.95;;
75651;SDS011;64248;43.602;39.724;2022-12-18T16:13:05;15.82;;;9.15;;
75651;SDS011;64248;43.602;39.724;2022-12-18T16:15:35;17.17;;;7.97;;
75651;SDS011;64248;43.602;39.724;2022-12-18T16:18:01;16.23;;;8.13;;
75651;SDS011;64248;43.602;39.724;2022-12-18T16:20:27;21.30;;;10.18;;
75651;SDS011;64248;43.602;39.724;2022-12-18T16:22:53;14.25;;;6.60;;
75651;SDS011;64248;43.602;39.724;2022-12-18T16:25:20;15.32;;;6.25;;
75651;SDS011;64248;43.602;39.724;2022-12-18T16:27:47;13.13;;;6.47;;
75651;SDS011;64248;43.602;39.724;2022-12-18T16:30:14;11.75;;;6.15;;
75651;SDS011;64248;43.602;39.724;2022-12-18T16:32:42;12.02;;;4.85;;
75651;SDS011;64248;43.602;39.724;2022-12-18T16:35:09;10.65;;;5.25;;
75651;SDS011;64248;43.602;39.724;2022-12-18T16:37:39;11.75;;;5.72;;
75651;SDS011;64248;43.602;39.724;2022-12-18T16:40:06;12.38;;;5.93;;
75651;SDS011;64248;43.602;39.724;2022-12-18T16:42:35;9.85;;;5.15;;
75651;SDS011;64248;43.602;39.724;2022-12-18T16:45:02;9.32;;;5.60;;
75651;SDS011;64248;43.602;39.724;2022-12-18T16:47:29;14.13;;;6.40;;
75651;SDS011;64248;43.602;39.724;2022-12-18T16:49:55;9.02;;;5.25;;
75651;SDS011;64248;43.602;39.724;2022-12-18T16:52:21;12.77;;;5.60;;
75651;SDS011;64248;43.602;39.724;2022-12-18T16:54:47;9.20;;;5.20;;
75651;SDS011;64248;43.602;39.724;2022-12-18T16:57:14;9.90;;;5.32;;
75651;SDS011;64248;43.602;39.724;2022-12-18T16:59:41;11.15;;;5.30;;
75651;SDS011;64248;43.602;39.724;2022-12-18T17:02:12;11.40;;;4.32;;
75651;SDS011;64248;43.602;39.724;2022-12-18T17:04:42;11.45;;;5.47;;
75651;SDS011;64248;43.602;39.724;2022-12-18T17:07:09;12.20;;;5.30;;
75651;SDS011;64248;43.602;39.724;2022-12-18T17:09:35;11.10;;;6.13;;
75651;SDS011;64248;43.602;39.724;2022-12-18T17:12:02;16.42;;;5.70;;